Time;durP1;ratioP1;P1;durP2;ratioP2;P2;SDS_P1;SDS_P2;PMS_P1;PMS_P2;Temp;Humidity;BMP_temperature;BMP_pressure;BME280_temperature;BME280_humidity;BME280_pressure;Samples;Min_cycle;Max_cycle;Signal;HPM_P1;HPM_P2
2023/08/08 00:01:28;;;;;;;7.82;5.25;;;13.50;99.90;;;;;;5054229;28;20200;-73
2023/08/08 00:03:59;;;;;;;11.00;5.32;;;13.60;99.90;;;;;;5056755;28;20247;-72
2023/08/08 00:06:32;;;;;;;9.88;5.00;;;13.60;99.90;;;;;;5064106;28;20286;-74
2023/08/08 00:09:03;;;;;;;8.70;4.28;;;13.70;99.90;;;;;;5059635;28;20193;-74
2023/08/08 00:11:34;;;;;;;9.35;5.00;;;13.70;99.90;;;;;;5063375;28;20210;-74
2023/08/08 00:14:05;;;;;;;7.30;4.03;;;13.80;99.90;;;;;;5059931;28;20282;-74
2023/08/08 00:16:35;;;;;;;8.70;3.90;;;13.90;99.90;;;;;;5055075;28;20202;-74
2023/08/08 00:19:06;;;;;;;5.55;3.80;;;14.00;99.90;;;;;;5054781;28;20585;-74
2023/08/08 00:21:39;;;;;;;7.35;4.10;;;14.10;99.90;;;;;;5068992;28;20192;-74
2023/08/08 00:24:10;;;;;;;10.50;4.70;;;14.10;99.90;;;;;;5071972;28;20707;-74
2023/08/08 00:26:40;;;;;;;6.80;4.00;;;14.20;99.90;;;;;;5064749;28;20305;-73
2023/08/08 00:29:11;;;;;;;7.38;4.25;;;14.20;99.90;;;;;;5054960;28;20194;-73
2023/08/08 00:31:42;;;;;;;7.53;4.30;;;14.20;99.90;;;;;;5067085;28;20189;-73
2023/08/08 00:34:12;;;;;;;7.38;3.90;;;14.20;99.90;;;;;;5055454;28;20197;-73
2023/08/08 00:36:45;;;;;;;7.03;4.15;;;14.20;99.90;;;;;;5054439;28;20203;-73
2023/08/08 00:39:16;;;;;;;5.65;3.58;;;14.30;99.90;;;;;;5059191;28;20220;-73
2023/08/08 00:41:46;;;;;;;5.53;4.03;;;14.30;99.90;;;;;;5056536;28;20536;-73
2023/08/08 00:44:17;;;;;;;10.23;4.13;;;14.40;99.90;;;;;;5055137;28;20308;-73
2023/08/08 00:46:48;;;;;;;10.07;4.80;;;14.40;99.90;;;;;;5071433;28;20204;-72
2023/08/08 00:49:19;;;;;;;11.60;4.60;;;14.50;99.90;;;;;;5061970;28;20213;-73
2023/08/08 00:51:53;;;;;;;10.40;3.78;;;14.60;99.90;;;;;;5057513;28;20281;-73
2023/08/08 00:54:24;;;;;;;8.23;2.78;;;14.80;99.90;;;;;;5063628;28;20567;-73
2023/08/08 00:56:54;;;;;;;4.50;2.55;;;15.00;99.90;;;;;;5066035;28;20201;-73
2023/08/08 00:59:26;;;;;;;4.50;2.50;;;15.10;99.90;;;;;;5053563;28;20198;-73
2023/08/08 01:01:56;;;;;;;4.05;2.40;;;15.20;99.90;;;;;;5058339;28;20197;-73
2023/08/08 01:04:29;;;;;;;4.93;2.00;;;15.40;99.90;;;;;;5055177;28;20217;-73
2023/08/08 01:07:08;;;;;;;3.33;1.85;;;15.40;99.90;;;;;;5049648;28;20661;-73
2023/08/08 01:09:44;;;;;;;5.97;2.47;;;15.50;99.90;;;;;;5057559;28;20562;-73
2023/08/08 01:12:17;;;;;;;5.25;2.40;;;15.40;99.90;;;;;;5059012;28;20553;-73
2023/08/08 01:14:48;;;;;;;3.67;2.17;;;15.50;99.90;;;;;;5072650;28;20195;-73
2023/08/08 01:17:19;;;;;;;7.68;2.28;;;15.50;99.90;;;;;;5072142;28;20211;-72
2023/08/08 01:19:50;;;;;;;3.15;2.00;;;15.50;99.90;;;;;;5071330;28;20211;-73
2023/08/08 01:22:28;;;;;;;3.42;2.10;;;15.50;99.90;;;;;;5064568;28;20197;-73
2023/08/08 01:25:02;;;;;;;5.03;2.47;;;15.50;99.90;;;;;;5068694;28;20189;-72
2023/08/08 01:27:33;;;;;;;6.68;2.30;;;15.50;99.90;;;;;;5069927;28;20197;-73
2023/08/08 01:30:04;;;;;;;8.35;3.00;;;15.60;99.90;;;;;;5052829;28;20721;-73
2023/08/08 01:32:35;;;;;;;73.20;52.35;;;15.70;99.90;;;;;;5055600;28;20189;-72
2023/08/08 01:35:07;;;;;;;33.70;26.42;;;15.90;99.90;;;;;;5058616;28;20193;-74
2023/08/08 01:37:47;;;;;;;8.77;6.20;;;16.00;99.90;;;;;;5057203;28;20205;-74
2023/08/08 01:40:20;;;;;;;5.82;3.35;;;16.10;99.90;;;;;;5056878;28;20200;-75
2023/08/08 01:42:53;;;;;;;4.28;2.97;;;16.20;99.90;;;;;;5067925;28;20201;-73
2023/08/08 01:45:24;;;;;;;3.22;2.22;;;16.30;99.90;;;;;;5073820;28;20192;-74
2023/08/08 01:47:55;;;;;;;5.25;2.00;;;16.50;99.90;;;;;;5059191;28;20250;-74
2023/08/08 01:50:26;;;;;;;3.88;2.22;;;16.80;99.90;;;;;;5055862;28;20204;-74
2023/08/08 01:52:57;;;;;;;2.55;1.60;;;17.10;99.90;;;;;;5055904;28;20676;-75
2023/08/08 01:55:29;;;;;;;2.70;1.80;;;17.30;99.90;;;;;;5064691;28;20204;-78
2023/08/08 01:58:00;;;;;;;3.00;1.73;;;17.50;99.90;;;;;;5076298;28;20189;-79
2023/08/08 02:00:31;;;;;;;3.28;1.33;;;17.60;99.90;;;;;;5062722;28;20598;-79
2023/08/08 02:03:02;;;;;;;5.22;1.85;;;17.70;99.90;;;;;;5063969;28;20696;-79
2023/08/08 02:05:32;;;;;;;2.72;1.38;;;17.80;99.90;;;;;;5062963;28;20193;-78
2023/08/08 02:08:03;;;;;;;4.97;1.60;;;18.00;99.90;;;;;;5069315;28;20665;-79
2023/08/08 02:10:36;;;;;;;4.35;1.60;;;18.10;99.90;;;;;;5065331;28;20215;-79
2023/08/08 02:13:07;;;;;;;2.92;1.52;;;18.10;99.90;;;;;;5059543;28;20202;-79
2023/08/08 02:15:37;;;;;;;3.88;1.40;;;18.00;99.90;;;;;;5055595;28;20186;-78
2023/08/08 02:18:10;;;;;;;3.20;1.60;;;18.00;99.90;;;;;;5055241;28;20185;-79
2023/08/08 02:20:41;;;;;;;4.00;1.42;;;17.90;99.90;;;;;;5056656;28;20225;-79
2023/08/08 02:23:12;;;;;;;3.58;1.60;;;17.70;99.90;;;;;;5060079;28;20229;-79
2023/08/08 02:25:44;;;;;;;3.53;1.65;;;17.70;99.90;;;;;;5055761;28;20205;-79
2023/08/08 02:28:15;;;;;;;6.00;1.70;;;17.80;99.90;;;;;;5054069;28;20206;-79
2023/08/08 02:30:46;;;;;;;4.47;1.60;;;18.00;99.90;;;;;;5053939;28;20216;-79
2023/08/08 02:33:17;;;;;;;4.50;1.60;;;18.10;99.90;;;;;;5060356;28;20506;-76
2023/08/08 02:35:48;;;;;;;4.20;1.83;;;18.30;99.90;;;;;;5055187;28;20197;-79
2023/08/08 02:38:19;;;;;;;2.72;1.80;;;18.30;99.90;;;;;;5069657;28;20208;-81
2023/08/08 02:40:51;;;;;;;4.93;2.10;;;18.30;99.90;;;;;;5060995;28;20263;-81
2023/08/08 02:43:22;;;;;;;4.60;1.60;;;18.10;99.90;;;;;;5059758;28;20222;-80
2023/08/08 02:45:53;;;;;;;1.80;1.70;;;17.80;99.90;;;;;;5061346;28;20190;-80
2023/08/08 02:48:23;;;;;;;5.05;1.80;;;17.60;99.90;;;;;;5055745;28;20193;-80
2023/08/08 02:50:54;;;;;;;6.05;1.50;;;17.70;99.90;;;;;;5055435;28;20190;-80
2023/08/08 02:53:25;;;;;;;4.53;2.00;;;17.80;99.90;;;;;;5071737;28;20696;-80
2023/08/08 02:55:57;;;;;;;4.85;1.92;;;17.80;99.90;;;;;;5072046;28;20193;-80
2023/08/08 02:58:28;;;;;;;3.80;1.80;;;18.00;99.90;;;;;;5065348;28;20205;-79
2023/08/08 03:00:59;;;;;;;3.17;1.80;;;18.10;99.90;;;;;;5075446;28;20196;-80
2023/08/08 03:03:30;;;;;;;3.15;1.80;;;18.10;99.90;;;;;;5066414;28;20591;-80
2023/08/08 03:06:01;;;;;;;4.18;1.80;;;18.00;99.90;;;;;;5055330;28;20190;-80
2023/08/08 03:08:31;;;;;;;3.40;1.63;;;18.00;99.90;;;;;;5055285;28;20186;-79
2023/08/08 03:11:04;;;;;;;3.10;1.70;;;17.90;99.90;;;;;;5063772;28;20189;-82
2023/08/08 03:13:35;;;;;;;4.90;1.83;;;18.00;99.90;;;;;;5065499;28;20212;-81
2023/08/08 03:16:06;;;;;;;3.03;1.45;;;18.00;99.90;;;;;;5070787;28;20227;-80
2023/08/08 03:18:36;;;;;;;2.88;1.52;;;18.10;99.90;;;;;;5055036;28;20186;-80
2023/08/08 03:21:07;;;;;;;4.95;1.70;;;18.20;99.90;;;;;;5054228;28;20200;-79
2023/08/08 03:23:38;;;;;;;6.47;1.60;;;18.10;99.90;;;;;;5055029;28;20217;-80
2023/08/08 03:26:10;;;;;;;3.67;1.67;;;18.10;99.90;;;;;;5062261;28;20546;-80
2023/08/08 03:28:41;;;;;;;4.45;1.70;;;18.10;99.90;;;;;;5062855;28;20200;-79
2023/08/08 03:31:12;;;;;;;3.00;1.65;;;18.10;99.90;;;;;;5058105;28;20587;-79
2023/08/08 03:33:43;;;;;;;6.57;1.73;;;18.10;99.90;;;;;;5069673;28;20200;-80
2023/08/08 03:36:13;;;;;;;1.63;1.50;;;18.10;99.90;;;;;;5067297;28;20196;-79
2023/08/08 03:38:45;;;;;;;6.20;1.70;;;18.10;99.90;;;;;;5075568;28;20189;-80
2023/08/08 03:41:18;;;;;;;3.08;1.67;;;18.10;99.90;;;;;;5054776;28;20201;-79
2023/08/08 03:43:49;;;;;;;5.22;1.50;;;18.00;99.90;;;;;;5056041;28;20205;-79
2023/08/08 03:46:19;;;;;;;2.28;1.80;;;18.00;99.90;;;;;;5067044;28;20192;-79
2023/08/08 03:48:50;;;;;;;5.25;1.58;;;18.00;99.90;;;;;;5052521;28;20186;-79
2023/08/08 03:51:21;;;;;;;3.40;1.88;;;18.00;99.90;;;;;;5053841;28;20190;-79
2023/08/08 03:53:51;;;;;;;6.65;1.67;;;18.00;99.90;;;;;;5054930;28;20194;-80
2023/08/08 03:56:24;;;;;;;4.18;1.65;;;18.00;99.90;;;;;;5054343;28;20201;-80
2023/08/08 03:58:55;;;;;;;3.08;1.45;;;18.00;99.90;;;;;;5054176;28;20204;-80
2023/08/08 04:01:26;;;;;;;3.80;1.48;;;18.00;99.90;;;;;;5061504;28;20221;-81
2023/08/08 04:03:56;;;;;;;4.20;1.40;;;18.00;99.90;;;;;;5053823;28;20249;-81
2023/08/08 04:06:27;;;;;;;5.90;1.48;;;18.00;99.90;;;;;;5054039;28;20634;-79
2023/08/08 04:08:58;;;;;;;3.58;1.70;;;17.90;99.90;;;;;;5053949;28;20637;-81
2023/08/08 04:11:30;;;;;;;4.30;1.50;;;17.90;99.90;;;;;;5053999;28;20634;-80
2023/08/08 04:14:01;;;;;;;3.83;1.50;;;17.90;99.90;;;;;;5054023;28;20575;-81
2023/08/08 04:16:32;;;;;;;5.72;2.60;;;17.90;99.90;;;;;;5054036;28;20689;-80
2023/08/08 04:19:03;;;;;;;4.35;1.70;;;17.90;99.90;;;;;;5069197;28;20775;-79
2023/08/08 04:21:34;;;;;;;3.30;1.50;;;17.80;99.90;;;;;;5060463;28;20201;-78
2023/08/08 04:24:05;;;;;;;2.83;1.50;;;17.90;99.90;;;;;;5056519;28;20212;-79
2023/08/08 04:26:37;;;;;;;2.83;1.38;;;17.90;99.90;;;;;;5054850;28;20193;-78
2023/08/08 04:29:08;;;;;;;1.90;1.40;;;17.90;99.90;;;;;;5071175;28;20655;-79
2023/08/08 04:31:39;;;;;;;3.20;1.38;;;17.80;99.90;;;;;;5058077;28;20241;-79
2023/08/08 04:34:10;;;;;;;3.45;1.63;;;17.80;99.90;;;;;;5067908;28;20193;-79
2023/08/08 04:36:40;;;;;;;5.32;1.60;;;17.80;99.90;;;;;;5062146;28;20222;-79
2023/08/08 04:39:11;;;;;;;1.50;1.20;;;17.70;99.90;;;;;;5055974;28;20198;-81
2023/08/08 04:41:44;;;;;;;3.85;1.80;;;17.70;99.90;;;;;;5054024;28;20547;-81
2023/08/08 04:44:14;;;;;;;3.70;1.60;;;17.70;99.90;;;;;;5061202;28;20576;-78
2023/08/08 04:46:45;;;;;;;3.25;1.50;;;17.70;99.90;;;;;;5066090;28;20197;-78
2023/08/08 04:49:16;;;;;;;5.65;1.75;;;17.70;99.90;;;;;;5056586;28;20210;-78
2023/08/08 04:51:47;;;;;;;3.47;1.40;;;17.70;99.90;;;;;;5067152;28;20204;-78
2023/08/08 04:54:17;;;;;;;4.40;1.73;;;17.70;99.90;;;;;;5092446;28;20644;-79
2023/08/08 04:56:50;;;;;;;5.25;1.75;;;17.70;99.90;;;;;;5086862;28;20215;-78
2023/08/08 04:59:21;;;;;;;1.95;1.50;;;17.70;99.90;;;;;;5061849;28;20190;-78
2023/08/08 05:01:51;;;;;;;4.10;1.55;;;17.70;99.90;;;;;;5068586;28;20704;-79
2023/08/08 05:04:22;;;;;;;4.80;1.75;;;17.70;99.90;;;;;;5060083;28;20236;-78
2023/08/08 05:06:57;;;;;;;3.55;1.60;;;17.60;99.90;;;;;;5072810;28;20193;-80
2023/08/08 05:09:28;;;;;;;3.20;1.50;;;17.60;99.90;;;;;;5071012;28;20271;-81
2023/08/08 05:12:00;;;;;;;4.32;1.52;;;17.60;99.90;;;;;;5050737;28;20197;-81
2023/08/08 05:14:31;;;;;;;2.50;1.40;;;17.50;99.90;;;;;;5060461;28;20284;-81
2023/08/08 05:17:02;;;;;;;3.78;1.73;;;17.50;99.90;;;;;;5060997;28;20189;-81
2023/08/08 05:19:33;;;;;;;5.15;1.42;;;17.50;99.90;;;;;;5068943;28;20197;-81
2023/08/08 05:22:03;;;;;;;3.00;1.48;;;17.40;99.90;;;;;;5064127;28;20197;-81
2023/08/08 05:24:35;;;;;;;2.40;1.40;;;17.40;99.90;;;;;;5052471;28;20712;-80
2023/08/08 05:27:08;;;;;;;5.15;1.52;;;17.40;99.90;;;;;;5053255;28;20281;-81
2023/08/08 05:29:39;;;;;;;2.10;1.17;;;17.40;99.90;;;;;;5052278;28;20656;-80
2023/08/08 05:32:10;;;;;;;2.40;1.30;;;17.40;99.90;;;;;;5054909;28;20679;-80
2023/08/08 05:34:41;;;;;;;3.47;1.60;;;17.40;99.90;;;;;;5052880;28;20288;-81
2023/08/08 05:37:12;;;;;;;3.88;1.60;;;17.30;99.90;;;;;;5054174;28;20649;-81
2023/08/08 05:39:42;;;;;;;4.00;1.40;;;17.30;99.90;;;;;;5071792;28;20205;-79
2023/08/08 05:42:15;;;;;;;3.72;1.35;;;17.30;99.90;;;;;;5072817;28;20543;-80
2023/08/08 05:44:46;;;;;;;5.63;1.40;;;17.30;99.90;;;;;;5072666;28;20213;-80
2023/08/08 05:47:17;;;;;;;3.63;1.60;;;17.30;99.90;;;;;;5072837;28;20259;-79
2023/08/08 05:49:47;;;;;;;6.43;1.50;;;17.30;99.90;;;;;;5072678;28;20570;-80
2023/08/08 05:52:18;;;;;;;2.80;1.50;;;17.30;99.90;;;;;;5072741;28;20204;-81
2023/08/08 05:54:49;;;;;;;3.28;1.50;;;17.30;99.90;;;;;;5072740;28;20706;-79
2023/08/08 05:57:21;;;;;;;5.47;1.58;;;17.30;99.90;;;;;;5072173;28;20200;-81
2023/08/08 05:59:52;;;;;;;7.35;1.50;;;17.30;99.90;;;;;;5072249;28;20594;-80
2023/08/08 06:02:23;;;;;;;7.00;1.90;;;17.30;99.90;;;;;;5072523;28;20236;-81
2023/08/08 06:04:54;;;;;;;2.58;1.40;;;17.30;99.90;;;;;;5072732;28;20224;-80
2023/08/08 06:07:24;;;;;;;4.22;1.60;;;17.30;99.90;;;;;;5066237;28;20196;-82
2023/08/08 06:09:55;;;;;;;3.50;1.50;;;17.20;99.90;;;;;;5072818;28;20193;-79
2023/08/08 06:12:28;;;;;;;3.03;1.73;;;17.20;99.90;;;;;;5072455;28;20196;-81
2023/08/08 06:14:58;;;;;;;4.57;1.65;;;17.20;99.90;;;;;;5072193;28;20214;-81
2023/08/08 06:17:30;;;;;;;4.35;1.40;;;17.20;99.90;;;;;;5069645;28;21747;-82
2023/08/08 06:20:00;;;;;;;3.22;1.30;;;17.10;99.90;;;;;;5053815;28;20655;-81
2023/08/08 06:22:31;;;;;;;3.97;1.45;;;17.00;99.90;;;;;;5057787;28;20196;-80
2023/08/08 06:25:02;;;;;;;3.03;1.80;;;17.00;99.90;;;;;;5058804;28;20216;-81
2023/08/08 06:27:35;;;;;;;3.33;1.35;;;17.00;99.90;;;;;;5055717;28;20205;-79
2023/08/08 06:30:06;;;;;;;3.50;1.40;;;16.90;99.90;;;;;;5055686;28;20201;-80
2023/08/08 06:32:36;;;;;;;4.80;1.50;;;16.90;99.90;;;;;;5054927;28;20283;-81
2023/08/08 06:35:08;;;;;;;5.07;1.50;;;16.90;99.90;;;;;;5057977;28;20197;-80
2023/08/08 06:37:38;;;;;;;3.78;1.60;;;16.90;99.90;;;;;;5069624;28;20204;-81
2023/08/08 06:40:10;;;;;;;2.33;1.38;;;16.80;99.90;;;;;;5063386;28;20198;-80
2023/08/08 06:42:43;;;;;;;4.05;1.58;;;16.80;99.90;;;;;;5059434;28;20281;-81
2023/08/08 06:45:14;;;;;;;4.32;1.65;;;16.80;99.90;;;;;;5061701;28;20263;-81
2023/08/08 06:47:45;;;;;;;3.80;1.40;;;16.70;99.90;;;;;;5055584;28;20558;-81
2023/08/08 06:50:15;;;;;;;4.47;1.50;;;16.70;99.90;;;;;;5056621;28;20189;-81
2023/08/08 06:52:47;;;;;;;3.88;1.40;;;16.70;99.90;;;;;;5059924;28;20190;-80
2023/08/08 06:55:17;;;;;;;4.47;1.45;;;16.60;99.90;;;;;;5055386;28;20205;-81
2023/08/08 06:57:50;;;;;;;3.42;1.60;;;16.60;99.90;;;;;;5071445;28;20198;-81
2023/08/08 07:00:21;;;;;;;5.88;1.55;;;16.50;99.90;;;;;;5068269;28;20229;-81
2023/08/08 07:02:52;;;;;;;7.25;1.63;;;16.50;99.90;;;;;;5057793;28;20228;-80
2023/08/08 07:05:24;;;;;;;3.70;1.60;;;16.40;99.90;;;;;;5063682;28;20208;-81
2023/08/08 07:07:55;;;;;;;3.90;1.73;;;16.30;99.90;;;;;;5063263;28;20239;-81
2023/08/08 07:10:26;;;;;;;4.97;1.60;;;16.30;99.90;;;;;;5075244;28;20191;-80
2023/08/08 07:12:59;;;;;;;2.92;1.70;;;16.30;99.90;;;;;;5070826;28;20197;-79
2023/08/08 07:15:30;;;;;;;6.82;1.77;;;16.20;99.90;;;;;;5075064;28;20193;-80
2023/08/08 07:18:01;;;;;;;4.80;1.77;;;16.10;99.90;;;;;;5057418;28;20201;-82
2023/08/08 07:20:31;;;;;;;7.85;1.67;;;16.10;99.90;;;;;;5055247;28;20280;-80
2023/08/08 07:23:02;;;;;;;2.17;1.60;;;16.00;99.90;;;;;;5059486;28;20660;-80
2023/08/08 07:25:33;;;;;;;6.00;1.92;;;15.90;99.90;;;;;;5059172;28;20228;-81
2023/08/08 07:28:05;;;;;;;3.53;1.70;;;15.90;99.90;;;;;;5065009;28;20197;-79
2023/08/08 07:30:36;;;;;;;3.70;1.65;;;15.90;99.90;;;;;;5058885;28;20720;-80
2023/08/08 07:33:08;;;;;;;6.53;1.90;;;15.80;99.90;;;;;;5066882;28;20189;-79
2023/08/08 07:35:39;;;;;;;3.08;1.77;;;15.80;99.90;;;;;;5067769;28;20197;-80
2023/08/08 07:38:10;;;;;;;5.53;2.00;;;15.70;99.90;;;;;;5059365;28;20693;-80
2023/08/08 07:40:41;;;;;;;4.30;1.95;;;15.70;99.90;;;;;;5055524;28;20189;-80
2023/08/08 07:43:13;;;;;;;3.38;1.95;;;15.70;99.90;;;;;;5061963;28;20204;-81
2023/08/08 07:45:44;;;;;;;5.18;2.03;;;15.60;99.90;;;;;;5060444;28;20213;-80
2023/08/08 07:48:15;;;;;;;5.18;2.25;;;15.50;99.90;;;;;;5066465;28;20532;-80
2023/08/08 07:50:46;;;;;;;4.75;1.90;;;15.50;99.90;;;;;;5057251;28;20212;-80
2023/08/08 07:53:16;;;;;;;3.92;1.65;;;15.50;99.90;;;;;;5055667;28;20194;-80
2023/08/08 07:55:47;;;;;;;5.93;1.92;;;15.50;99.90;;;;;;5065482;28;20201;-80
2023/08/08 07:58:21;;;;;;;5.55;2.05;;;15.40;99.90;;;;;;5060926;28;20205;-81
2023/08/08 08:00:53;;;;;;;4.38;2.40;;;15.40;99.90;;;;;;5057455;28;20213;-80
2023/08/08 08:03:23;;;;;;;3.88;2.00;;;15.30;99.90;;;;;;5056194;28;20286;-81
2023/08/08 08:05:54;;;;;;;4.63;2.30;;;15.30;99.90;;;;;;5066632;28;20216;-79
2023/08/08 08:08:25;;;;;;;3.25;2.22;;;15.20;99.90;;;;;;5059368;28;20641;-80
2023/08/08 08:10:56;;;;;;;4.57;1.95;;;15.20;99.90;;;;;;5057859;28;20236;-79
2023/08/08 08:13:28;;;;;;;3.70;2.10;;;15.20;99.90;;;;;;5069495;28;20570;-79
2023/08/08 08:15:59;;;;;;;7.03;2.13;;;15.10;99.90;;;;;;5068754;28;20231;-80
2023/08/08 08:18:30;;;;;;;3.83;1.98;;;15.10;99.90;;;;;;5053822;28;20656;-80
2023/08/08 08:21:01;;;;;;;3.67;1.95;;;15.10;99.90;;;;;;5061608;28;20608;-80
2023/08/08 08:23:32;;;;;;;4.60;1.98;;;15.10;99.90;;;;;;5057278;28;20204;-79
2023/08/08 08:26:02;;;;;;;4.82;2.13;;;15.10;99.90;;;;;;5063940;28;20581;-80
2023/08/08 08:28:35;;;;;;;2.72;1.90;;;15.00;99.90;;;;;;5062919;28;20204;-80
2023/08/08 08:31:08;;;;;;;3.95;2.05;;;15.00;99.90;;;;;;5064984;28;20193;-79
2023/08/08 08:33:39;;;;;;;4.50;2.00;;;15.00;99.90;;;;;;5068071;28;20201;-80
2023/08/08 08:36:10;;;;;;;4.97;2.30;;;14.90;99.90;;;;;;5065824;28;20197;-79
2023/08/08 08:38:41;;;;;;;4.75;2.08;;;14.90;99.90;;;;;;5066844;28;20607;-78
2023/08/08 08:41:15;;;;;;;5.35;2.40;;;14.80;99.90;;;;;;5060537;28;20197;-79
2023/08/08 08:43:50;;;;;;;4.32;2.10;;;14.80;99.90;;;;;;5066077;28;20725;-80
2023/08/08 08:46:24;;;;;;;4.30;2.22;;;14.80;99.90;;;;;;5064929;28;20223;-80
2023/08/08 08:48:56;;;;;;;4.05;2.05;;;14.70;99.90;;;;;;5062093;28;20648;-80
2023/08/08 08:51:27;;;;;;;6.93;2.30;;;14.70;99.90;;;;;;5065791;28;20326;-79
2023/08/08 08:53:58;;;;;;;7.00;2.65;;;14.60;99.90;;;;;;5070089;28;20189;-80
2023/08/08 08:56:29;;;;;;;6.20;2.58;;;14.60;99.90;;;;;;5057411;28;20214;-79
2023/08/08 08:59:02;;;;;;;4.88;2.33;;;14.60;99.90;;;;;;5071143;28;20204;-80
2023/08/08 09:01:33;;;;;;;4.60;2.40;;;14.50;99.90;;;;;;5069146;28;20243;-80
2023/08/08 09:04:07;;;;;;;4.60;2.60;;;14.50;99.90;;;;;;5056945;28;20680;-80
2023/08/08 09:06:38;;;;;;;4.57;2.60;;;14.50;99.90;;;;;;5068102;28;20303;-80
2023/08/08 09:09:09;;;;;;;5.40;2.70;;;14.40;99.90;;;;;;5065155;28;20645;-80
2023/08/08 09:11:40;;;;;;;5.30;2.65;;;14.40;99.90;;;;;;5063883;28;20201;-80
2023/08/08 09:14:21;;;;;;;5.78;2.75;;;14.40;99.90;;;;;;5059904;28;20197;-80
2023/08/08 09:16:53;;;;;;;6.13;2.72;;;14.40;99.90;;;;;;5060631;28;20209;-80
2023/08/08 09:19:25;;;;;;;7.63;3.20;;;14.40;99.90;;;;;;5061178;28;20206;-80
2023/08/08 09:21:55;;;;;;;6.30;2.90;;;14.30;99.90;;;;;;5064590;28;20224;-80
2023/08/08 09:24:26;;;;;;;7.25;2.67;;;14.30;99.90;;;;;;5063120;28;20534;-80
2023/08/08 09:26:57;;;;;;;8.73;3.05;;;14.30;99.90;;;;;;5063546;28;20213;-80
2023/08/08 09:29:30;;;;;;;8.63;3.45;;;14.30;99.90;;;;;;5062769;28;20660;-80
2023/08/08 09:32:01;;;;;;;5.40;2.90;;;14.20;99.90;;;;;;5058111;28;20198;-78
2023/08/08 09:34:32;;;;;;;5.25;2.78;;;14.20;99.90;;;;;;5064738;28;20544;-78
2023/08/08 09:37:05;;;;;;;5.82;2.67;;;14.20;99.90;;;;;;5064658;28;20730;-78
2023/08/08 09:39:35;;;;;;;6.60;3.03;;;14.20;99.90;;;;;;5071173;28;20194;-78
2023/08/08 09:42:06;;;;;;;6.28;3.00;;;14.10;99.90;;;;;;5071744;28;20204;-78
2023/08/08 09:44:39;;;;;;;6.88;3.10;;;14.10;99.90;;;;;;5063067;28;20274;-78
2023/08/08 09:47:14;;;;;;;8.93;3.20;;;14.10;99.90;;;;;;5067662;28;20219;-78
2023/08/08 09:49:45;;;;;;;8.38;3.28;;;14.00;99.90;;;;;;5070139;28;20214;-79
2023/08/08 09:52:17;;;;;;;6.95;3.15;;;14.00;99.90;;;;;;5059163;28;20204;-79
2023/08/08 09:54:49;;;;;;;7.38;3.03;;;14.00;99.90;;;;;;5065793;28;20197;-78
2023/08/08 09:57:20;;;;;;;9.25;3.42;;;13.90;99.90;;;;;;5063930;28;20588;-80
2023/08/08 09:59:54;;;;;;;7.72;3.83;;;13.90;99.90;;;;;;5067520;28;20201;-80
2023/08/08 10:02:25;;;;;;;6.53;3.25;;;13.90;99.90;;;;;;5058613;28;20360;-79
2023/08/08 10:04:58;;;;;;;9.38;3.53;;;13.90;99.90;;;;;;5059597;28;20672;-79
2023/08/08 10:07:28;;;;;;;8.93;3.53;;;13.80;99.90;;;;;;5058369;28;20252;-77
2023/08/08 10:10:00;;;;;;;9.20;4.30;;;13.80;99.90;;;;;;5075542;28;20217;-78
2023/08/08 10:12:31;;;;;;;7.28;4.00;;;13.80;99.90;;;;;;5068957;28;20200;-79
2023/08/08 10:15:04;;;;;;;6.90;3.90;;;13.70;99.90;;;;;;5071618;28;20554;-77
2023/08/08 10:17:40;;;;;;;7.45;4.00;;;13.70;99.90;;;;;;5070416;28;20205;-77
2023/08/08 10:20:13;;;;;;;8.70;3.83;;;13.70;99.90;;;;;;5056229;28;20602;-78
2023/08/08 10:22:48;;;;;;;8.07;3.83;;;13.70;99.90;;;;;;5071596;28;20237;-80
2023/08/08 10:25:28;;;;;;;7.63;3.90;;;13.60;99.90;;;;;;5074764;28;20196;-78
2023/08/08 10:28:12;;;;;;;11.93;4.30;;;13.60;99.90;;;;;;5074939;28;20197;-80
2023/08/08 10:30:49;;;;;;;6.28;3.70;;;13.60;99.90;;;;;;5076003;28;20193;-80
2023/08/08 10:33:21;;;;;;;8.27;3.85;;;13.60;99.90;;;;;;5073455;28;20203;-79
2023/08/08 10:36:03;;;;;;;7.70;4.50;;;13.50;99.90;;;;;;5068127;28;20197;-80
2023/08/08 10:38:44;;;;;;;7.45;3.75;;;13.50;99.90;;;;;;5062951;28;20201;-80
2023/08/08 10:41:16;;;;;;;6.70;3.90;;;13.50;99.90;;;;;;5055648;28;20208;-78
2023/08/08 10:43:54;;;;;;;7.30;4.07;;;13.50;99.90;;;;;;5055920;28;20208;-79
2023/08/08 10:46:32;;;;;;;5.93;3.78;;;13.50;99.90;;;;;;5055129;28;20217;-79
2023/08/08 10:49:03;;;;;;;7.32;3.80;;;13.50;99.90;;;;;;5055474;28;20582;-79
2023/08/08 10:51:42;;;;;;;6.97;4.20;;;13.40;99.90;;;;;;5055389;28;20204;-79
2023/08/08 10:54:19;;;;;;;7.45;4.20;;;13.40;99.90;;;;;;5055921;28;20281;-79
2023/08/08 10:56:54;;;;;;;7.32;3.88;;;13.40;99.90;;;;;;5066570;28;20286;-80
2023/08/08 10:59:26;;;;;;;7.50;3.88;;;13.40;99.90;;;;;;5068035;28;20536;-79
2023/08/08 11:01:58;;;;;;;7.45;3.75;;;13.40;99.90;;;;;;5069610;28;20216;-79
2023/08/08 11:04:30;;;;;;;7.88;3.90;;;13.40;99.90;;;;;;5064962;28;20196;-79
2023/08/08 11:07:00;;;;;;;6.38;3.80;;;13.40;99.90;;;;;;5055137;28;20221;-79
2023/08/08 11:09:31;;;;;;;9.02;4.70;;;13.40;99.90;;;;;;5055172;28;20190;-80
2023/08/08 11:12:02;;;;;;;9.55;4.57;;;13.40;99.90;;;;;;5061430;28;20288;-80
2023/08/08 11:14:33;;;;;;;8.82;4.20;;;13.30;99.90;;;;;;5065772;28;20199;-79
2023/08/08 11:17:06;;;;;;;9.57;4.70;;;13.30;99.90;;;;;;5073320;28;20201;-80
2023/08/08 11:19:43;;;;;;;8.82;4.75;;;13.40;99.90;;;;;;5074922;28;20192;-79
2023/08/08 11:22:14;;;;;;;9.18;4.45;;;13.40;99.90;;;;;;5074039;28;20197;-80
2023/08/08 11:24:45;;;;;;;10.95;4.68;;;13.40;99.90;;;;;;5075005;28;20629;-80
2023/08/08 11:27:15;;;;;;;8.55;4.28;;;13.50;99.90;;;;;;5068227;28;20745;-79
2023/08/08 11:29:52;;;;;;;6.38;4.15;;;13.50;99.90;;;;;;5057471;28;20209;-79
2023/08/08 11:32:26;;;;;;;7.85;4.80;;;13.50;99.90;;;;;;5070840;28;20200;-80
2023/08/08 11:34:58;;;;;;;10.00;5.22;;;13.50;99.90;;;;;;5071337;28;20275;-79
2023/08/08 11:37:29;;;;;;;7.78;4.70;;;13.60;99.90;;;;;;5054128;28;20630;-79
2023/08/08 11:40:00;;;;;;;9.77;5.40;;;13.60;99.90;;;;;;5060484;28;20551;-80
2023/08/08 11:42:30;;;;;;;8.95;5.50;;;13.60;99.90;;;;;;5054628;28;20284;-80
2023/08/08 11:45:01;;;;;;;10.23;5.60;;;13.60;99.90;;;;;;5054764;28;20215;-79
2023/08/08 11:47:38;;;;;;;14.25;5.75;;;13.60;99.90;;;;;;5061635;28;20229;-79
2023/08/08 11:50:10;;;;;;;9.90;5.68;;;13.60;99.90;;;;;;5073779;28;20200;-80
2023/08/08 11:52:43;;;;;;;9.27;5.90;;;13.60;99.90;;;;;;5073231;28;20247;-80
2023/08/08 11:55:15;;;;;;;7.78;5.25;;;13.60;99.90;;;;;;5058045;28;20197;-83
2023/08/08 11:57:46;;;;;;;8.23;5.35;;;13.60;99.90;;;;;;5068209;28;20730;-82
2023/08/08 12:00:17;;;;;;;9.70;5.72;;;13.60;99.90;;;;;;5066194;28;20216;-79
2023/08/08 12:02:50;;;;;;;8.95;5.80;;;13.60;99.90;;;;;;5070835;28;20312;-79
2023/08/08 12:05:25;;;;;;;8.43;5.25;;;13.50;99.90;;;;;;5052282;28;20197;-78
2023/08/08 12:07:56;;;;;;;7.20;5.03;;;13.50;99.90;;;;;;5053557;28;20221;-78
2023/08/08 12:10:27;;;;;;;13.18;5.53;;;13.50;99.90;;;;;;5054267;28;20190;-78
2023/08/08 12:12:59;;;;;;;10.77;5.70;;;13.50;99.90;;;;;;5071284;28;20185;-79
2023/08/08 12:15:32;;;;;;;6.82;5.18;;;13.40;99.90;;;;;;5073470;28;20189;-79
2023/08/08 12:18:05;;;;;;;8.82;5.28;;;13.40;99.90;;;;;;5063379;28;20198;-78
2023/08/08 12:20:37;;;;;;;10.43;5.30;;;13.30;99.90;;;;;;5062965;28;20234;-79
2023/08/08 12:23:08;;;;;;;9.88;5.07;;;13.30;99.90;;;;;;5070831;28;20203;-79
2023/08/08 12:25:39;;;;;;;8.52;5.32;;;13.30;99.90;;;;;;5061138;28;20201;-79
2023/08/08 12:28:10;;;;;;;9.25;5.78;;;13.30;99.90;;;;;;5062538;28;20227;-79
2023/08/08 12:30:41;;;;;;;8.13;5.30;;;13.30;99.90;;;;;;5070098;28;20200;-79
2023/08/08 12:33:14;;;;;;;6.95;4.70;;;13.20;99.90;;;;;;5058440;28;20198;-79
2023/08/08 12:35:44;;;;;;;8.93;4.85;;;13.20;99.90;;;;;;5056738;28;20197;-79
2023/08/08 12:38:15;;;;;;;9.88;4.72;;;13.20;99.90;;;;;;5070531;28;20200;-78
2023/08/08 12:40:46;;;;;;;7.28;4.53;;;13.20;99.90;;;;;;5067379;28;20259;-78
2023/08/08 12:43:19;;;;;;;9.60;4.80;;;13.10;99.90;;;;;;5061828;28;20213;-79
2023/08/08 12:45:50;;;;;;;7.20;4.68;;;13.10;99.90;;;;;;5056297;28;20274;-78
2023/08/08 12:48:22;;;;;;;8.27;5.35;;;13.10;99.90;;;;;;5062441;28;20220;-79
2023/08/08 12:50:53;;;;;;;6.38;4.75;;;13.10;99.90;;;;;;5060186;28;20201;-78
2023/08/08 12:53:24;;;;;;;8.18;5.00;;;13.00;99.90;;;;;;5065081;28;20197;-79
2023/08/08 12:55:54;;;;;;;7.70;5.15;;;13.00;99.90;;;;;;5075700;28;20193;-79
2023/08/08 12:58:25;;;;;;;8.18;4.95;;;13.00;99.90;;;;;;5054490;28;20206;-79
2023/08/08 13:00:56;;;;;;;11.32;5.45;;;13.00;99.90;;;;;;5052713;28;20214;-79
2023/08/08 13:03:30;;;;;;;9.40;5.45;;;12.90;99.90;;;;;;5053684;28;20226;-78
2023/08/08 13:06:01;;;;;;;10.85;5.55;;;12.90;99.90;;;;;;5068395;28;20193;-79
2023/08/08 13:08:32;;;;;;;9.45;5.35;;;12.80;99.90;;;;;;5061975;28;20225;-79